Time;durP1;ratioP1;P1;durP2;ratioP2;P2;SDS_P1;SDS_P2;PMS_P1;PMS_P2;Temp;Humidity;BMP_temperature;BMP_pressure;BME280_temperature;BME280_humidity;BME280_pressure;Samples;Min_cycle;Max_cycle;Signal;HPM_P1;HPM_P2
2022/08/09 00:01:47;;;;;;;1.85;1.42;;;19.00;48.90;;;;;;5079294;28;20031;-62
2022/08/09 00:04:19;;;;;;;2.05;1.00;;;19.00;49.10;;;;;;5078075;28;20127;-63
2022/08/09 00:06:45;;;;;;;9.35;1.27;;;19.00;49.10;;;;;;5061325;28;20036;-61
2022/08/09 00:09:12;;;;;;;3.25;1.00;;;18.90;49.20;;;;;;5077532;28;20058;-61
2022/08/09 00:11:38;;;;;;;4.60;1.20;;;18.90;49.20;;;;;;5080814;28;20033;-62
2022/08/09 00:14:05;;;;;;;4.53;1.40;;;18.90;49.20;;;;;;5078466;28;20041;-63
2022/08/09 00:16:31;;;;;;;1.35;1.10;;;18.80;49.10;;;;;;5080741;28;20445;-63
2022/08/09 00:18:56;;;;;;;2.97;1.30;;;18.80;49.10;;;;;;5062510;28;20025;-63
2022/08/09 00:21:22;;;;;;;1.83;1.20;;;18.80;49.20;;;;;;5080004;28;20538;-65
2022/08/09 00:23:48;;;;;;;5.32;1.20;;;18.80;49.30;;;;;;5077370;28;20422;-63
2022/08/09 00:26:14;;;;;;;2.35;1.60;;;18.80;49.20;;;;;;5078874;28;20032;-63
2022/08/09 00:28:39;;;;;;;1.35;1.10;;;18.70;49.20;;;;;;5064058;28;20568;-64
2022/08/09 00:31:06;;;;;;;2.60;1.00;;;18.70;49.40;;;;;;5078894;28;20055;-65
2022/08/09 00:33:31;;;;;;;2.08;1.27;;;18.70;49.70;;;;;;5074892;28;20020;-63
2022/08/09 00:35:59;;;;;;;2.05;1.20;;;18.60;49.80;;;;;;5083640;28;20029;-63
2022/08/09 00:38:25;;;;;;;1.15;1.00;;;18.60;49.80;;;;;;5082422;28;20025;-63
2022/08/09 00:40:52;;;;;;;2.10;1.20;;;18.60;49.90;;;;;;5077678;28;20414;-63
2022/08/09 00:43:19;;;;;;;1.58;1.10;;;18.60;50.00;;;;;;5085430;28;20028;-62
2022/08/09 00:45:44;;;;;;;2.15;1.20;;;18.50;50.10;;;;;;5081530;28;20043;-62
2022/08/09 00:48:10;;;;;;;2.60;1.23;;;18.50;50.20;;;;;;5084237;28;20020;-63
2022/08/09 00:50:36;;;;;;;2.13;1.08;;;18.50;50.10;;;;;;5082066;28;20471;-62
2022/08/09 00:53:02;;;;;;;3.78;1.10;;;18.40;50.00;;;;;;5081850;28;20025;-63
2022/08/09 00:55:28;;;;;;;1.13;1.02;;;18.40;50.10;;;;;;5080642;28;20048;-63
2022/08/09 00:57:53;;;;;;;1.95;1.20;;;18.40;50.20;;;;;;5064551;28;20032;-62
2022/08/09 01:00:19;;;;;;;2.67;1.33;;;18.30;50.00;;;;;;5069881;28;20102;-62
2022/08/09 01:03:15;;;;;;;2.55;1.15;;;18.30;50.20;;;;;;5064658;28;20031;-63
2022/08/09 01:06:08;;;;;;;3.20;1.20;;;18.20;50.80;;;;;;5055797;28;20147;-63
2022/08/09 01:09:05;;;;;;;1.23;1.08;;;18.20;51.20;;;;;;5055431;28;20028;-63
2022/08/09 01:11:58;;;;;;;1.50;1.35;;;18.20;51.10;;;;;;5060060;28;20116;-62
2022/08/09 01:14:42;;;;;;;2.20;0.98;;;18.10;51.00;;;;;;5062100;28;20507;-62
2022/08/09 01:17:15;;;;;;;3.05;1.25;;;18.10;51.10;;;;;;5060904;28;20089;-62
2022/08/09 01:19:59;;;;;;;1.83;1.25;;;18.10;50.60;;;;;;5061875;28;20039;-63
2022/08/09 01:22:43;;;;;;;1.27;1.15;;;18.00;51.50;;;;;;5075654;28;20032;-62
2022/08/09 01:25:34;;;;;;;1.75;1.17;;;18.00;51.70;;;;;;5069236;28;20048;-63
2022/08/09 01:28:02;;;;;;;3.30;1.30;;;17.90;51.90;;;;;;5081912;28;20051;-62
2022/08/09 01:30:29;;;;;;;3.25;1.10;;;17.90;51.10;;;;;;5043333;28;20025;-62
2022/08/09 01:32:57;;;;;;;2.60;1.08;;;17.90;51.30;;;;;;5078658;28;20051;-62
2022/08/09 01:35:35;;;;;;;2.40;1.15;;;17.80;51.30;;;;;;5060605;28;20044;-62
2022/08/09 01:38:05;;;;;;;2.17;1.20;;;17.80;52.00;;;;;;5067213;28;20036;-62
2022/08/09 01:40:34;;;;;;;4.40;1.58;;;17.80;51.60;;;;;;5061409;28;20562;-63
2022/08/09 01:43:00;;;;;;;1.23;1.13;;;17.70;51.50;;;;;;5048186;28;20029;-62
2022/08/09 01:45:27;;;;;;;1.98;1.38;;;17.70;51.60;;;;;;5070992;28;20029;-63
2022/08/09 01:47:55;;;;;;;1.83;1.23;;;17.70;51.70;;;;;;5069211;28;20153;-62
2022/08/09 01:50:22;;;;;;;2.10;1.15;;;17.60;51.80;;;;;;5064602;28;20025;-64
2022/08/09 01:52:49;;;;;;;3.42;1.35;;;17.60;51.90;;;;;;5062828;28;20032;-62
2022/08/09 01:55:16;;;;;;;3.45;1.35;;;17.60;52.10;;;;;;5060905;28;20175;-62
2022/08/09 01:57:46;;;;;;;4.45;1.40;;;17.50;52.00;;;;;;5058515;28;20135;-63
2022/08/09 02:00:13;;;;;;;1.58;1.30;;;17.50;52.40;;;;;;5059806;28;20043;-63
2022/08/09 02:02:50;;;;;;;1.95;1.45;;;17.50;52.20;;;;;;5062638;28;20367;-62
2022/08/09 02:05:20;;;;;;;1.95;1.15;;;17.50;53.00;;;;;;5048055;28;20025;-63
2022/08/09 02:07:59;;;;;;;2.92;1.60;;;17.40;52.50;;;;;;5062444;28;20103;-62
2022/08/09 02:10:32;;;;;;;4.40;1.35;;;17.40;53.30;;;;;;5060542;28;20033;-62
2022/08/09 02:13:02;;;;;;;2.10;1.17;;;17.40;52.70;;;;;;5066813;28;20549;-64
2022/08/09 02:15:30;;;;;;;1.90;1.20;;;17.40;52.90;;;;;;5051648;28;20044;-64
2022/08/09 02:17:56;;;;;;;1.35;1.23;;;17.30;52.90;;;;;;5041774;28;20028;-62
2022/08/09 02:20:22;;;;;;;1.30;1.10;;;17.30;53.00;;;;;;5054479;28;20135;-61
2022/08/09 02:22:54;;;;;;;1.25;1.15;;;17.30;52.90;;;;;;5062507;28;20033;-62
2022/08/09 02:25:23;;;;;;;1.40;1.30;;;17.30;53.40;;;;;;5061967;28;20088;-63
2022/08/09 02:28:02;;;;;;;1.33;1.23;;;17.20;53.10;;;;;;5064249;28;20024;-63
2022/08/09 02:30:33;;;;;;;6.32;1.63;;;17.20;53.70;;;;;;5050037;28;20040;-62
2022/08/09 02:33:00;;;;;;;3.28;1.40;;;17.20;53.40;;;;;;5059620;28;20021;-62
2022/08/09 02:35:28;;;;;;;3.22;1.30;;;17.10;53.30;;;;;;5060371;28;20477;-62
2022/08/09 02:37:58;;;;;;;2.50;1.55;;;17.10;53.50;;;;;;5057982;28;20021;-61
2022/08/09 02:40:25;;;;;;;4.13;1.40;;;17.10;53.60;;;;;;5060600;28;20503;-61
2022/08/09 02:42:54;;;;;;;4.07;1.30;;;17.10;53.60;;;;;;5062980;28;20060;-63
2022/08/09 02:45:23;;;;;;;3.20;1.58;;;17.10;53.90;;;;;;5060669;28;20025;-61
2022/08/09 02:47:51;;;;;;;2.53;1.42;;;17.00;53.80;;;;;;5062755;28;20029;-62
2022/08/09 02:50:25;;;;;;;3.90;1.30;;;17.00;54.00;;;;;;5061650;28;20032;-62
2022/08/09 02:52:56;;;;;;;3.13;1.40;;;17.00;54.30;;;;;;5054705;28;20059;-62
2022/08/09 02:55:24;;;;;;;2.13;1.42;;;17.00;54.00;;;;;;5060163;28;20304;-61
2022/08/09 02:57:53;;;;;;;1.50;1.23;;;17.00;54.10;;;;;;5079818;28;20052;-61
2022/08/09 03:00:19;;;;;;;5.40;1.40;;;17.00;54.10;;;;;;5082246;28;20017;-62
2022/08/09 03:02:49;;;;;;;6.90;2.00;;;16.90;54.20;;;;;;5083395;28;20605;-61
2022/08/09 03:05:16;;;;;;;1.52;1.38;;;16.90;54.50;;;;;;5080426;28;20178;-63
2022/08/09 03:07:43;;;;;;;4.28;1.30;;;16.90;54.20;;;;;;5081065;28;20020;-63
2022/08/09 03:10:10;;;;;;;6.07;2.00;;;16.90;54.40;;;;;;5060652;28;20031;-61
2022/08/09 03:12:37;;;;;;;3.03;1.60;;;16.90;54.40;;;;;;5080034;28;20077;-61
2022/08/09 03:15:05;;;;;;;3.42;1.45;;;16.80;54.40;;;;;;5078896;28;20038;-61
2022/08/09 03:17:32;;;;;;;1.95;1.30;;;16.80;54.40;;;;;;5080702;28;20039;-63
2022/08/09 03:20:00;;;;;;;1.92;1.35;;;16.80;54.50;;;;;;5073959;28;20084;-61
2022/08/09 03:22:31;;;;;;;3.95;1.50;;;16.80;54.70;;;;;;5076967;28;20047;-61
2022/08/09 03:24:58;;;;;;;1.58;1.48;;;16.70;54.80;;;;;;5079151;28;20036;-62
2022/08/09 03:27:25;;;;;;;2.47;1.50;;;16.70;54.50;;;;;;5078419;28;20031;-61
2022/08/09 03:29:52;;;;;;;1.92;1.30;;;16.70;54.60;;;;;;5079003;28;21577;-62
2022/08/09 03:32:19;;;;;;;1.88;1.27;;;16.70;54.80;;;;;;5080588;28;20024;-63
2022/08/09 03:34:45;;;;;;;1.58;1.48;;;16.60;54.90;;;;;;5079384;28;20041;-61
2022/08/09 03:37:11;;;;;;;8.18;1.50;;;16.60;54.90;;;;;;5080392;28;20081;-62
2022/08/09 03:39:37;;;;;;;2.83;1.70;;;16.60;55.00;;;;;;5079062;28;20047;-61
2022/08/09 03:42:03;;;;;;;3.42;1.45;;;16.60;55.00;;;;;;5079143;28;20077;-61
2022/08/09 03:44:29;;;;;;;1.50;1.40;;;16.60;55.10;;;;;;5079053;28;20066;-63
2022/08/09 03:46:55;;;;;;;3.30;1.48;;;16.50;55.10;;;;;;5080953;28;20491;-61
2022/08/09 03:49:23;;;;;;;1.98;1.60;;;16.50;55.10;;;;;;5076862;28;20027;-61
2022/08/09 03:51:53;;;;;;;2.20;1.38;;;16.50;55.20;;;;;;5079541;28;20039;-61
2022/08/09 03:54:19;;;;;;;2.38;1.60;;;16.50;55.40;;;;;;5081184;28;20101;-63
2022/08/09 03:56:45;;;;;;;2.78;1.35;;;16.50;55.30;;;;;;5078793;28;20056;-62
2022/08/09 03:59:13;;;;;;;2.13;1.50;;;16.50;55.40;;;;;;5080943;28;20032;-62
2022/08/09 04:01:40;;;;;;;3.17;1.63;;;16.50;55.50;;;;;;5080278;28;20027;-62
2022/08/09 04:04:06;;;;;;;2.33;1.58;;;16.50;55.60;;;;;;5081932;28;20463;-61
2022/08/09 04:06:35;;;;;;;1.90;1.60;;;16.40;55.70;;;;;;5079829;28;20518;-62
2022/08/09 04:09:02;;;;;;;2.10;1.50;;;16.40;55.80;;;;;;5083203;28;20035;-62
2022/08/09 04:11:57;;;;;;;3.40;1.60;;;16.40;55.80;;;;;;5082989;28;20020;-62
2022/08/09 04:14:22;;;;;;;5.00;1.48;;;16.40;56.40;;;;;;5084520;28;20467;-62
2022/08/09 04:16:48;;;;;;;1.92;1.50;;;16.40;55.80;;;;;;5065024;28;20039;-62
2022/08/09 04:19:14;;;;;;;2.80;1.70;;;16.30;55.90;;;;;;5085790;28;20029;-62
2022/08/09 04:21:40;;;;;;;2.33;1.70;;;16.30;56.00;;;;;;5083768;28;20092;-61
2022/08/09 04:24:06;;;;;;;2.22;1.42;;;16.30;56.20;;;;;;5066942;28;20035;-62
2022/08/09 04:26:32;;;;;;;1.50;1.40;;;16.30;56.30;;;;;;5083425;28;20059;-62
2022/08/09 04:28:58;;;;;;;2.78;1.63;;;16.30;56.40;;;;;;5079012;28;20029;-62
2022/08/09 04:31:25;;;;;;;2.20;1.65;;;16.30;56.50;;;;;;5082651;28;20032;-62
2022/08/09 04:33:51;;;;;;;4.32;1.60;;;16.30;56.60;;;;;;5085353;28;20066;-62
2022/08/09 04:36:17;;;;;;;4.15;1.77;;;16.30;56.60;;;;;;5082865;28;20538;-62
2022/08/09 04:38:43;;;;;;;2.33;1.38;;;16.30;56.70;;;;;;5083829;28;20043;-61
2022/08/09 04:41:09;;;;;;;2.30;1.70;;;16.30;56.80;;;;;;5082953;28;20052;-62
2022/08/09 04:43:34;;;;;;;1.95;1.35;;;16.30;56.80;;;;;;5084328;28;20025;-62
2022/08/09 04:46:00;;;;;;;3.10;1.50;;;16.30;56.70;;;;;;5083637;28;20097;-62
2022/08/09 04:48:26;;;;;;;1.88;1.30;;;16.30;56.70;;;;;;5086577;28;20031;-62
2022/08/09 04:50:52;;;;;;;2.80;1.60;;;16.30;56.70;;;;;;5084852;28;20036;-61
2022/08/09 04:53:18;;;;;;;2.75;1.73;;;16.40;56.80;;;;;;5084000;28;20048;-62
2022/08/09 04:55:43;;;;;;;1.58;1.40;;;16.40;56.80;;;;;;5084566;28;20067;-61
2022/08/09 04:58:09;;;;;;;3.15;1.90;;;16.50;56.90;;;;;;5068049;28;20032;-61
2022/08/09 05:00:35;;;;;;;3.65;1.75;;;16.50;56.90;;;;;;5061121;28;20085;-61
2022/08/09 05:03:03;;;;;;;5.43;1.50;;;16.60;56.90;;;;;;5085412;28;20057;-61
2022/08/09 05:05:28;;;;;;;2.75;1.60;;;16.60;56.80;;;;;;5046267;28;20039;-61
2022/08/09 05:07:55;;;;;;;3.42;1.58;;;16.70;56.80;;;;;;5080996;28;20037;-62
2022/08/09 05:10:21;;;;;;;3.58;1.60;;;16.80;56.70;;;;;;5073436;28;20028;-62
2022/08/09 05:12:46;;;;;;;4.80;1.65;;;16.80;56.70;;;;;;5084343;28;20082;-62
2022/08/09 05:15:12;;;;;;;2.70;1.67;;;16.90;56.70;;;;;;5073956;28;20045;-61
2022/08/09 05:17:38;;;;;;;3.30;1.58;;;17.00;57.30;;;;;;5084200;28;20078;-62
2022/08/09 05:20:05;;;;;;;6.60;1.95;;;17.10;56.70;;;;;;5072390;28;20052;-62
2022/08/09 05:22:30;;;;;;;5.07;1.70;;;17.20;56.60;;;;;;5085930;28;20031;-62
2022/08/09 05:24:56;;;;;;;2.92;1.55;;;17.30;56.50;;;;;;5079177;28;20033;-62
2022/08/09 05:27:22;;;;;;;7.38;1.63;;;17.40;56.60;;;;;;4978044;28;20049;-61
2022/08/09 05:29:47;;;;;;;4.75;1.65;;;17.50;56.50;;;;;;5082398;28;20048;-61
2022/08/09 05:32:13;;;;;;;7.03;1.63;;;17.70;56.40;;;;;;5064661;28;20029;-61
2022/08/09 05:34:39;;;;;;;4.50;1.50;;;17.80;56.30;;;;;;5073955;28;20037;-61
2022/08/09 05:37:06;;;;;;;2.92;1.83;;;17.90;56.20;;;;;;5065851;28;20037;-61
2022/08/09 05:39:36;;;;;;;6.72;1.80;;;18.00;56.60;;;;;;5075443;28;20111;-61
2022/08/09 05:42:02;;;;;;;5.15;1.65;;;18.10;55.90;;;;;;5058992;28;20118;-61
2022/08/09 05:44:27;;;;;;;5.05;1.60;;;18.30;55.80;;;;;;5066343;28;20033;-61
2022/08/09 05:46:53;;;;;;;7.13;1.88;;;18.40;55.60;;;;;;5067749;28;20093;-62
2022/08/09 05:49:19;;;;;;;5.32;1.55;;;18.60;55.40;;;;;;5067840;28;20032;-62
2022/08/09 05:51:44;;;;;;;5.50;1.75;;;18.70;55.20;;;;;;5069265;28;20033;-62
2022/08/09 05:54:10;;;;;;;7.53;2.25;;;18.80;55.20;;;;;;5069471;28;20041;-61
2022/08/09 05:56:36;;;;;;;3.78;1.67;;;19.00;55.00;;;;;;5079636;28;20060;-63
2022/08/09 05:59:02;;;;;;;6.45;1.85;;;19.00;54.80;;;;;;5063198;28;20024;-62
2022/08/09 06:01:28;;;;;;;4.95;1.80;;;19.20;54.80;;;;;;5067608;28;20029;-62
2022/08/09 06:03:55;;;;;;;7.55;2.03;;;19.30;54.70;;;;;;5064061;28;20036;-63
2022/08/09 06:06:21;;;;;;;6.90;1.92;;;19.40;54.30;;;;;;5050096;28;20438;-62
2022/08/09 06:08:47;;;;;;;9.88;2.10;;;19.60;54.60;;;;;;5064933;28;20092;-62
2022/08/09 06:11:13;;;;;;;4.50;2.30;;;19.70;54.00;;;;;;5079494;28;20032;-62
2022/08/09 06:13:39;;;;;;;8.50;2.13;;;19.80;53.80;;;;;;5062271;28;20418;-63
2022/08/09 06:16:05;;;;;;;12.27;1.95;;;20.00;53.70;;;;;;5061727;28;20054;-61
2022/08/09 06:18:32;;;;;;;8.57;1.55;;;20.10;53.50;;;;;;5079599;28;20036;-62
2022/08/09 06:20:57;;;;;;;4.20;1.80;;;20.30;53.30;;;;;;5064090;28;20029;-62
2022/08/09 06:23:30;;;;;;;3.60;1.77;;;20.50;53.20;;;;;;5063790;28;20036;-62
2022/08/09 06:25:56;;;;;;;5.63;2.08;;;20.60;52.90;;;;;;5068500;28;20025;-61
2022/08/09 06:28:21;;;;;;;2.30;1.70;;;20.70;52.50;;;;;;5061907;28;20748;-62
2022/08/09 06:30:47;;;;;;;8.38;2.10;;;20.90;52.10;;;;;;5054719;28;20108;-62
2022/08/09 06:33:13;;;;;;;6.63;2.08;;;21.00;51.80;;;;;;5059817;28;20435;-62
2022/08/09 06:35:39;;;;;;;4.78;2.08;;;21.20;51.70;;;;;;5063724;28;20100;-62
2022/08/09 06:38:06;;;;;;;8.93;1.83;;;21.40;51.50;;;;;;5061449;28;20031;-62
2022/08/09 06:40:31;;;;;;;19.27;1.67;;;21.50;51.10;;;;;;5069823;28;20051;-61
2022/08/09 06:42:57;;;;;;;4.90;1.98;;;21.70;51.10;;;;;;5062921;28;20024;-62
2022/08/09 06:45:23;;;;;;;7.78;2.85;;;21.80;50.60;;;;;;5061507;28;20029;-63
2022/08/09 06:47:49;;;;;;;7.25;2.40;;;22.00;50.50;;;;;;5061851;28;20079;-63
2022/08/09 06:50:15;;;;;;;4.55;1.60;;;22.10;50.30;;;;;;5054997;28;20068;-62
2022/08/09 06:52:44;;;;;;;7.10;1.42;;;22.30;50.00;;;;;;5061775;28;20417;-61
2022/08/09 06:55:15;;;;;;;3.15;1.80;;;22.50;49.90;;;;;;5062139;28;20388;-62
2022/08/09 06:57:40;;;;;;;2.58;1.40;;;22.70;49.40;;;;;;5064217;28;20037;-62
2022/08/09 07:00:07;;;;;;;2.30;1.50;;;22.80;49.10;;;;;;5058690;28;20043;-62
2022/08/09 07:02:33;;;;;;;4.30;1.77;;;23.00;49.00;;;;;;5060272;28;20029;-62
2022/08/09 07:04:59;;;;;;;5.15;1.30;;;23.20;49.00;;;;;;5043127;28;20033;-62
2022/08/09 07:07:25;;;;;;;5.45;1.30;;;23.30;48.60;;;;;;5060944;28;20047;-62
2022/08/09 07:09:50;;;;;;;4.95;1.90;;;23.50;48.40;;;;;;5063376;28;20554;-63
2022/08/09 07:12:16;;;;;;;4.60;2.72;;;23.60;48.50;;;;;;5061115;28;20063;-64
2022/08/09 07:14:42;;;;;;;4.85;1.83;;;23.70;48.30;;;;;;5063531;28;20037;-63
2022/08/09 07:17:07;;;;;;;3.05;1.40;;;23.90;48.60;;;;;;5059842;28;20029;-63
2022/08/09 07:19:33;;;;;;;5.43;2.33;;;24.00;47.60;;;;;;5061479;28;20037;-63
2022/08/09 07:21:59;;;;;;;8.02;2.78;;;24.20;47.40;;;;;;5061773;28;20112;-63
2022/08/09 07:24:29;;;;;;;4.63;2.30;;;24.30;47.10;;;;;;5072940;28;20511;-63
2022/08/09 07:26:55;;;;;;;5.80;2.65;;;24.40;46.80;;;;;;5053750;28;20028;-63
2022/08/09 07:29:21;;;;;;;6.45;2.90;;;24.50;46.80;;;;;;5073052;28;20059;-62
2022/08/09 07:31:47;;;;;;;6.07;1.77;;;24.70;46.60;;;;;;5062171;28;20037;-63
2022/08/09 07:34:12;;;;;;;3.08;1.45;;;24.80;46.20;;;;;;5062850;28;20029;-62
2022/08/09 07:36:39;;;;;;;4.07;1.63;;;24.90;46.00;;;;;;5062426;28;20032;-63
2022/08/09 07:39:05;;;;;;;4.25;1.45;;;25.10;45.50;;;;;;5064556;28;20036;-63
2022/08/09 07:41:31;;;;;;;1.58;1.17;;;25.20;45.50;;;;;;5064921;28;20039;-63
2022/08/09 07:43:57;;;;;;;2.20;1.35;;;25.30;45.10;;;;;;5067067;28;20084;-62
2022/08/09 07:46:24;;;;;;;1.60;1.10;;;25.30;45.10;;;;;;5045925;28;20396;-63
2022/08/09 07:48:50;;;;;;;2.08;1.40;;;25.50;45.00;;;;;;5054383;28;20434;-64
2022/08/09 07:51:16;;;;;;;1.80;1.20;;;25.50;44.80;;;;;;5067347;28;20036;-63
2022/08/09 07:53:42;;;;;;;2.92;1.35;;;25.70;44.90;;;;;;5065222;28;20031;-62
2022/08/09 07:56:07;;;;;;;4.90;1.30;;;25.70;44.90;;;;;;5081638;28;20398;-63
2022/08/09 07:58:33;;;;;;;4.10;1.25;;;25.80;44.40;;;;;;5081407;28;20045;-63
2022/08/09 08:00:59;;;;;;;5.80;1.63;;;25.90;43.70;;;;;;5087652;28;20028;-63
2022/08/09 08:03:24;;;;;;;1.85;1.20;;;26.00;43.50;;;;;;5097267;28;20112;-63
2022/08/09 08:05:50;;;;;;;4.10;1.30;;;26.10;43.40;;;;;;5087483;28;20562;-63
2022/08/09 08:08:16;;;;;;;2.65;1.10;;;26.20;43.20;;;;;;5079235;28;20039;-62
2022/08/09 08:10:41;;;;;;;1.58;1.05;;;26.20;43.20;;;;;;5081585;28;20119;-62
2022/08/09 08:13:07;;;;;;;1.90;1.00;;;26.30;43.00;;;;;;5080180;28;20028;-62
2022/08/09 08:15:33;;;;;;;1.70;1.00;;;26.40;42.80;;;;;;5063485;28;20104;-63
2022/08/09 08:17:58;;;;;;;1.60;1.08;;;26.60;42.90;;;;;;5062563;28;20486;-63
2022/08/09 08:20:27;;;;;;;2.45;1.05;;;26.70;42.70;;;;;;5081846;28;20071;-63
2022/08/09 08:22:53;;;;;;;3.70;0.90;;;26.70;41.50;;;;;;5082175;28;20389;-64
2022/08/09 08:25:18;;;;;;;4.63;1.20;;;26.80;41.60;;;;;;4982733;28;20085;-62
2022/08/09 08:27:44;;;;;;;3.55;1.10;;;26.90;41.40;;;;;;5076379;28;20055;-62
2022/08/09 08:30:17;;;;;;;2.03;1.05;;;26.90;41.30;;;;;;5079460;28;20051;-62
2022/08/09 08:32:43;;;;;;;1.10;1.00;;;26.90;41.00;;;;;;5080067;28;20043;-63
2022/08/09 08:35:09;;;;;;;3.10;2.13;;;27.00;41.10;;;;;;5082214;28;20032;-63
2022/08/09 08:37:35;;;;;;;2.50;1.20;;;27.10;41.40;;;;;;5078388;28;20231;-64
2022/08/09 08:40:03;;;;;;;6.75;1.58;;;27.20;41.10;;;;;;5081843;28;20029;-61
2022/08/09 08:42:30;;;;;;;83.30;13.98;;;27.30;41.30;;;;;;5079092;28;20028;-62
2022/08/09 08:44:58;;;;;;;3.03;1.23;;;27.30;41.50;;;;;;5081333;28;20049;-63
2022/08/09 08:47:28;;;;;;;1.75;1.05;;;27.40;40.90;;;;;;5079351;28;20086;-63
2022/08/09 08:49:56;;;;;;;70.65;20.77;;;27.60;41.30;;;;;;5081620;28;20043;-63
2022/08/09 08:52:27;;;;;;;7.28;3.70;;;27.60;41.10;;;;;;5080838;28;20036;-62
2022/08/09 08:54:53;;;;;;;5.18;1.42;;;27.80;40.80;;;;;;5063915;28;20049;-63
2022/08/09 08:57:22;;;;;;;3.55;1.23;;;27.80;40.40;;;;;;5081585;28;20036;-62
2022/08/09 08:59:50;;;;;;;1.98;1.30;;;27.90;39.70;;;;;;5081780;28;20119;-63
2022/08/09 09:02:25;;;;;;;3.83;1.20;;;28.00;39.90;;;;;;5077266;28;20055;-62
2022/08/09 09:04:54;;;;;;;36.63;10.70;;;28.10;38.70;;;;;;5085971;28;20020;-63
2022/08/09 09:07:22;;;;;;;7.03;2.45;;;28.20;39.90;;;;;;5085045;28;20111;-63
2022/08/09 09:09:49;;;;;;;1.88;1.35;;;28.30;39.30;;;;;;5084962;28;20036;-62
2022/08/09 09:12:16;;;;;;;8.45;1.00;;;28.40;38.20;;;;;;5083770;28;20023;-63
2022/08/09 09:14:44;;;;;;;2.85;1.00;;;28.40;38.60;;;;;;5082287;28;20041;-62
2022/08/09 09:17:10;;;;;;;1.55;0.90;;;28.50;38.40;;;;;;5075523;28;20487;-62
2022/08/09 09:19:36;;;;;;;6.03;1.05;;;28.60;38.00;;;;;;5082739;28;20119;-63
2022/08/09 09:22:03;;;;;;;3.50;0.93;;;28.60;37.50;;;;;;5080977;28;20416;-62
2022/08/09 09:24:40;;;;;;;2.00;1.00;;;28.70;37.40;;;;;;5064443;28;20507;-62
2022/08/09 09:27:08;;;;;;;2.55;0.88;;;28.70;37.30;;;;;;5079175;28;20070;-63
2022/08/09 09:29:37;;;;;;;2.63;1.10;;;28.70;37.60;;;;;;5083761;28;20039;-64
2022/08/09 09:32:03;;;;;;;2.75;1.08;;;28.80;37.00;;;;;;5082749;28;20062;-62
2022/08/09 09:34:29;;;;;;;2.25;0.95;;;28.80;37.10;;;;;;5084278;28;20041;-64
2022/08/09 09:36:56;;;;;;;1.92;0.80;;;28.90;36.40;;;;;;5083263;28;20235;-64
2022/08/09 09:39:24;;;;;;;3.63;1.10;;;28.90;36.50;;;;;;5083793;28;20380;-62
2022/08/09 09:41:50;;;;;;;9.68;0.90;;;29.00;36.30;;;;;;5082658;28;20036;-63
2022/08/09 09:44:31;;;;;;;7.00;1.05;;;29.00;36.40;;;;;;5084330;28;20025;-63
2022/08/09 09:47:15;;;;;;;4.50;1.00;;;29.10;36.30;;;;;;5082860;28;20033;-62
2022/08/09 09:49:49;;;;;;;3.00;0.97;;;29.20;35.30;;;;;;5085433;28;20039;-62
2022/08/09 09:52:15;;;;;;;2.33;0.95;;;29.20;35.00;;;;;;5081473;28;20125;-62
2022/08/09 09:54:42;;;;;;;2.30;0.90;;;29.30;35.30;;;;;;5066269;28;20029;-63
2022/08/09 09:57:14;;;;;;;2.47;1.02;;;29.40;34.90;;;;;;5082866;28;20090;-63
2022/08/09 09:59:41;;;;;;;1.40;0.80;;;29.50;34.70;;;;;;5084253;28;20040;-63
2022/08/09 10:02:07;;;;;;;2.63;1.02;;;29.50;35.00;;;;;;5082748;28;20036;-63
2022/08/09 10:04:33;;;;;;;1.42;0.80;;;29.60;34.30;;;;;;5085140;28;20029;-63
2022/08/09 10:06:58;;;;;;;2.17;0.90;;;29.60;34.40;;;;;;5078032;28;20040;-62
2022/08/09 10:09:24;;;;;;;3.65;1.90;;;29.70;34.20;;;;;;5085177;28;20029;-64
2022/08/09 10:11:57;;;;;;;1.23;0.80;;;29.80;33.50;;;;;;5082049;28;20110;-64
2022/08/09 10:14:25;;;;;;;2.72;0.93;;;29.80;33.20;;;;;;5084680;28;20047;-64
2022/08/09 10:16:51;;;;;;;2.33;0.90;;;29.90;33.60;;;;;;5082109;28;20097;-65
2022/08/09 10:19:17;;;;;;;2.03;1.10;;;30.00;33.80;;;;;;5084206;28;20024;-62
2022/08/09 10:21:48;;;;;;;1.63;0.90;;;30.00;33.50;;;;;;5083518;28;20051;-65
2022/08/09 10:24:15;;;;;;;1.48;0.88;;;30.10;32.70;;;;;;5083619;28;20044;-65
2022/08/09 10:26:42;;;;;;;1.42;0.70;;;30.20;33.10;;;;;;5083545;28;20094;-65
2022/08/09 10:29:12;;;;;;;3.00;0.90;;;30.30;32.40;;;;;;5083947;28;20083;-64
2022/08/09 10:31:41;;;;;;;2.45;1.00;;;30.40;32.60;;;;;;5083162;28;20017;-64
2022/08/09 10:34:11;;;;;;;1.77;0.98;;;30.40;31.50;;;;;;5082721;28;20032;-65
2022/08/09 10:36:38;;;;;;;2.28;1.08;;;30.50;31.80;;;;;;5082723;28;20459;-63
2022/08/09 10:39:05;;;;;;;3.17;1.70;;;30.50;32.10;;;;;;5084583;28;20021;-65
2022/08/09 10:41:30;;;;;;;2.58;0.95;;;30.60;32.40;;;;;;5082161;28;20035;-63
2022/08/09 10:43:56;;;;;;;1.85;0.60;;;30.70;32.30;;;;;;5084337;28;20020;-63
2022/08/09 10:46:47;;;;;;;1.73;0.98;;;30.80;31.80;;;;;;5079286;28;20044;-63
2022/08/09 10:49:32;;;;;;;5.10;0.90;;;30.80;30.90;;;;;;5070402;28;20029;-63
2022/08/09 10:52:16;;;;;;;2.38;0.80;;;30.90;31.40;;;;;;5082961;28;20026;-63
2022/08/09 10:54:41;;;;;;;1.65;0.95;;;31.00;31.10;;;;;;5074507;28;20047;-64
2022/08/09 10:57:09;;;;;;;1.52;0.90;;;31.00;31.40;;;;;;5082160;28;20068;-64
2022/08/09 10:59:36;;;;;;;5.40;0.90;;;31.00;31.30;;;;;;5070503;28;20388;-64
2022/08/09 11:02:07;;;;;;;2.92;0.77;;;31.00;31.70;;;;;;5082144;28;20025;-62
2022/08/09 11:04:34;;;;;;;2.10;1.05;;;31.10;30.70;;;;;;5067632;28;20033;-64
2022/08/09 11:07:00;;;;;;;1.58;0.85;;;31.10;30.50;;;;;;5075921;28;20056;-63
2022/08/09 11:09:46;;;;;;;3.95;0.73;;;31.20;30.50;;;;;;5070785;28;20045;-63
2022/08/09 11:12:15;;;;;;;1.45;0.82;;;31.20;29.60;;;;;;5036367;28;20063;-63
2022/08/09 11:14:47;;;;;;;1.35;0.70;;;31.20;30.30;;;;;;5062201;28;20037;-63
2022/08/09 11:17:13;;;;;;;1.02;0.73;;;31.30;30.00;;;;;;5070299;28;20096;-63
2022/08/09 11:20:06;;;;;;;1.27;0.82;;;31.30;30.00;;;;;;5052452;28;20439;-64
2022/08/09 11:22:44;;;;;;;3.60;1.00;;;31.30;29.60;;;;;;5063880;28;20475;-62
2022/08/09 11:25:15;;;;;;;1.83;0.90;;;31.30;30.00;;;;;;5076995;28;20051;-63
2022/08/09 11:27:43;;;;;;;1.42;0.63;;;31.40;30.40;;;;;;5053906;28;20032;-63
2022/08/09 11:30:21;;;;;;;4.18;1.20;;;31.40;29.70;;;;;;5083454;28;20036;-64
2022/08/09 11:33:06;;;;;;;2.25;1.02;;;31.40;29.30;;;;;;5055980;28;20115;-65
2022/08/09 11:35:46;;;;;;;1.92;1.13;;;31.40;28.20;;;;;;5072690;28;20037;-64
2022/08/09 11:38:18;;;;;;;6.45;1.10;;;31.40;28.50;;;;;;5065239;28;20063;-65
2022/08/09 11:40:44;;;;;;;3.53;0.88;;;31.40;29.20;;;;;;5060262;28;20041;-65
2022/08/09 11:43:34;;;;;;;6.28;0.80;;;31.40;29.30;;;;;;5065387;28;20025;-65
2022/08/09 11:46:02;;;;;;;3.42;0.60;;;31.50;28.50;;;;;;5043320;28;20040;-64
2022/08/09 11:48:30;;;;;;;1.08;0.70;;;31.50;28.90;;;;;;5061338;28;20097;-65
2022/08/09 11:50:56;;;;;;;5.05;0.90;;;31.60;28.90;;;;;;5063409;28;20056;-66
2022/08/09 11:53:39;;;;;;;4.22;1.25;;;31.60;29.00;;;;;;5063899;28;20400;-64
2022/08/09 11:56:13;;;;;;;1.33;0.70;;;31.70;28.90;;;;;;5057139;28;20037;-64
2022/08/09 11:58:45;;;;;;;0.90;0.75;;;31.80;28.80;;;;;;5078945;28;20037;-63
2022/08/09 12:01:13;;;;;;;1.65;0.88;;;31.70;27.70;;;;;;5081198;28;20043;-64
2022/08/09 12:03:39;;;;;;;1.30;0.63;;;31.70;28.30;;;;;;5081211;28;20411;-64
2022/08/09 12:06:12;;;;;;;1.58;0.70;;;31.80;28.50;;;;;;5081556;28;20036;-64
2022/08/09 12:08:46;;;;;;;3.80;0.90;;;31.80;28.40;;;;;;5079277;28;20092;-64
2022/08/09 12:11:13;;;;;;;10.10;1.73;;;31.80;28.40;;;;;;5079353;28;20025;-63
2022/08/09 12:13:44;;;;;;;0.93;0.70;;;31.90;28.50;;;;;;5072636;28;20031;-63
2022/08/09 12:16:15;;;;;;;3.60;1.15;;;32.00;28.20;;;;;;5072484;28;20029;-62
2022/08/09 12:18:48;;;;;;;0.63;0.52;;;32.00;28.30;;;;;;5079192;28;20033;-64
2022/08/09 12:21:24;;;;;;;2.22;0.93;;;32.10;27.70;;;;;;5077655;28;20107;-63
2022/08/09 12:23:50;;;;;;;0.73;0.60;;;32.20;27.40;;;;;;5074725;28;20028;-63
2022/08/09 12:26:16;;;;;;;2.10;0.77;;;32.20;28.30;;;;;;5076712;28;20035;-62
2022/08/09 12:28:54;;;;;;;0.90;0.60;;;32.40;28.10;;;;;;5056402;28;20029;-63
2022/08/09 12:31:26;;;;;;;2.50;0.70;;;32.40;27.20;;;;;;5065110;28;20031;-64
2022/08/09 12:33:53;;;;;;;1.52;0.70;;;32.50;27.40;;;;;;5062897;28;20060;-63
2022/08/09 12:36:21;;;;;;;1.48;0.80;;;32.50;27.60;;;;;;5084878;28;20051;-64
2022/08/09 12:38:51;;;;;;;9.82;1.35;;;32.60;27.60;;;;;;5083527;28;20088;-66
2022/08/09 12:41:30;;;;;;;0.82;0.63;;;32.70;27.60;;;;;;5085173;28;20055;-64
2022/08/09 12:43:58;;;;;;;0.77;0.73;;;32.70;27.20;;;;;;5084759;28;20063;-64
2022/08/09 12:46:24;;;;;;;1.23;0.68;;;32.70;27.50;;;;;;5081801;28;20054;-65
2022/08/09 12:48:54;;;;;;;2.00;0.82;;;32.80;27.40;;;;;;5079973;28;20033;-63
2022/08/09 12:51:21;;;;;;;2.03;0.80;;;32.80;27.10;;;;;;5083934;28;20044;-63
2022/08/09 12:54:03;;;;;;;4.90;0.70;;;32.90;27.00;;;;;;5084711;28;20139;-64